Airfield :
LOGIN :

Register | Disclaimer

   EN    FR    IT 

 










Legend :    VFR   Marginal VFR   IFR   Intensive IFR   Very Intensive IFR
Visi :
Ceiling :
>= 8 km
>= 3000ft
5 to 8 km
1000 to 3000 ft
1500m to 5 km
500 to 1000 ft
800 to 1500m
200 to 500 ft
< 800m
< 200 ft
Symbols :   Thunderstorms  Fog  Heavy snow  Heavy precipitations  Wind > 20 kt
SIGMETs :     Misc.  Thunderstorms  Icing  Turbulence  Mountain Waves  Volcanic Ashes







- Airport Elevation : 16 ft
- IATA code : AAE


DABB - Annaba-Rabah Bitat

CURRENT METAR :
  • 130130Z 22006KT 9999 FEW020 11/08 Q1016

EXPIRED METARs :
  • 130100Z 19007KT 9999 FEW020 09/08 Q1016
  • 130030Z 17006KT 9999 FEW020 09/08 Q1017
  • 130000Z 16006KT 9999 FEW020 09/08 Q1017
  • 122330Z 18006KT 9999 FEW020 10/08 Q1017
  • 122300Z 21007KT 9999 FEW020 11/09 Q1017
  • 122230Z 20005KT 9999 FEW020 10/08 Q1017

TAF TAF DABB
Valid from the 13 at 00:00 until the 14 at 00:00 UTC


122300Z 1300/1324 26008KT 8000 SCT023
No reported NOTAMs for that airfield.



MET'MAP, your aeronautical weather chart ! - Copyright ORBIFLY December 2007 - Disclaimer

ORBIFLY MET'MAP TEAM :

Programming & Development : Alexandra Zaïnal
Concept & Development : Baudouin d'Aumeries
Co-Development & Prog : Marc-Olivier Méhu
Technical & hardware support : Manuel Goepfert

Contact : metmap@orbifly.com




SOURCES & CREDITS :

   NOAA